createdAt,value
2023-04-04T00:00:23.884Z,2.24
2023-04-04T00:03:10.435Z,2.11
2023-04-04T00:05:36.681Z,2.15
2023-04-04T00:08:03.603Z,2.07
2023-04-04T00:10:29.732Z,2.09
2023-04-04T00:12:56.239Z,2.11
2023-04-04T00:15:22.404Z,2.02
2023-04-04T00:17:48.834Z,2.01
2023-04-04T00:20:15.435Z,2.01
2023-04-04T00:22:41.764Z,2.08
2023-04-04T00:25:08.968Z,1.94
2023-04-04T00:27:35.529Z,1.94
2023-04-04T00:30:01.622Z,2.04
2023-04-04T00:32:28.409Z,1.91
2023-04-04T00:34:56.418Z,1.89
2023-04-04T00:37:22.815Z,1.86
2023-04-04T00:39:49.189Z,1.74
2023-04-04T00:42:15.615Z,1.67
2023-04-04T00:44:41.784Z,1.64
2023-04-04T00:47:08.330Z,1.70
2023-04-04T00:49:34.877Z,1.69
2023-04-04T00:52:01.408Z,1.53
2023-04-04T00:54:29.782Z,1.55
2023-04-04T00:56:57.447Z,1.44
2023-04-04T00:59:26.130Z,1.36
2023-04-04T01:01:53.150Z,1.46
2023-04-04T01:04:19.486Z,1.49
2023-04-04T01:06:46.162Z,1.45
2023-04-04T01:09:12.557Z,1.55
2023-04-04T01:11:39.000Z,1.51
2023-04-04T01:14:05.965Z,1.55
2023-04-04T01:16:35.423Z,1.46
2023-04-04T01:19:05.954Z,1.52
2023-04-04T01:21:32.362Z,1.53
2023-04-04T01:24:00.665Z,1.44
2023-04-04T01:26:34.962Z,1.38
2023-04-04T01:29:02.968Z,1.34
2023-04-04T01:31:55.593Z,1.29
2023-04-04T01:34:41.916Z,1.27
2023-04-04T01:37:22.513Z,1.19
2023-04-04T01:39:53.499Z,1.18
2023-04-04T01:42:22.093Z,1.20
2023-04-04T01:44:55.500Z,1.38
2023-04-04T01:47:23.977Z,1.37
2023-04-04T01:49:50.043Z,1.35
2023-04-04T01:52:16.390Z,1.33
2023-04-04T01:54:42.549Z,1.43
2023-04-04T01:57:08.996Z,1.37
2023-04-04T01:59:35.626Z,1.64
2023-04-04T02:02:02.051Z,1.62
2023-04-04T02:04:29.763Z,1.52
2023-04-04T02:06:56.558Z,1.68
2023-04-04T02:09:22.721Z,1.69
2023-04-04T02:11:50.053Z,1.63
2023-04-04T02:14:16.189Z,1.68
2023-04-04T02:16:43.231Z,1.71
2023-04-04T02:19:09.452Z,1.83
2023-04-04T02:21:36.842Z,1.96
2023-04-04T02:24:03.077Z,2.05
2023-04-04T02:26:29.787Z,2.06
2023-04-04T02:28:56.020Z,1.95
2023-04-04T02:31:22.800Z,1.88
2023-04-04T02:33:48.918Z,1.99
2023-04-04T02:36:18.012Z,2.04
2023-04-04T02:38:46.090Z,1.89
2023-04-04T02:41:15.115Z,1.89
2023-04-04T02:43:41.311Z,1.88
2023-04-04T02:46:18.744Z,1.87
2023-04-04T02:48:48.736Z,1.86
2023-04-04T02:51:15.240Z,1.79
2023-04-04T02:53:41.632Z,1.71
2023-04-04T02:56:20.523Z,1.82
2023-04-04T02:58:47.732Z,1.84
2023-04-04T03:01:14.151Z,1.88
2023-04-04T03:03:40.482Z,1.86
2023-04-04T03:06:07.290Z,1.78
2023-04-04T03:08:34.955Z,1.81
2023-04-04T03:11:02.022Z,1.82
2023-04-04T03:13:28.111Z,1.74
2023-04-04T03:16:01.980Z,1.79
2023-04-04T03:18:30.873Z,1.89
2023-04-04T03:20:58.152Z,2.03
2023-04-04T03:23:24.574Z,1.98
2023-04-04T03:25:51.004Z,2.07
2023-04-04T03:28:17.337Z,1.89
2023-04-04T03:30:44.453Z,1.88
2023-04-04T03:33:11.693Z,1.87
2023-04-04T03:35:39.355Z,1.92
2023-04-04T03:38:06.030Z,2.00
2023-04-04T03:40:32.791Z,1.95
2023-04-04T03:42:58.978Z,1.93
2023-04-04T03:45:25.416Z,1.96
2023-04-04T03:47:51.642Z,1.99
2023-04-04T03:50:18.584Z,2.03
2023-04-04T03:52:50.830Z,3.70
2023-04-04T03:55:18.564Z,3.93
2023-04-04T03:57:44.764Z,3.92
2023-04-04T04:00:14.073Z,4.07
2023-04-04T04:02:40.410Z,3.81
2023-04-04T04:05:08.729Z,3.74
2023-04-04T04:07:35.116Z,3.70
2023-04-04T04:10:01.635Z,3.90
2023-04-04T04:12:27.871Z,4.12
2023-04-04T04:14:54.227Z,3.98
2023-04-04T04:17:20.346Z,3.78
2023-04-04T04:19:47.795Z,3.64
2023-04-04T04:22:15.027Z,4.03
2023-04-04T04:24:43.281Z,3.61
2023-04-04T04:27:09.370Z,3.53
2023-04-04T04:29:35.989Z,3.42
2023-04-04T04:32:02.807Z,3.34
2023-04-04T04:34:33.577Z,3.40
2023-04-04T04:36:59.740Z,3.31
2023-04-04T04:39:31.243Z,3.22
2023-04-04T04:42:09.211Z,3.31
2023-04-04T04:44:40.312Z,3.41
2023-04-04T04:47:06.765Z,3.78
2023-04-04T04:49:33.502Z,3.34
2023-04-04T04:52:04.399Z,3.38
2023-04-04T04:54:31.753Z,2.81
2023-04-04T04:56:59.819Z,2.45
2023-04-04T04:59:26.487Z,2.26
2023-04-04T05:01:52.782Z,2.39
2023-04-04T05:04:20.279Z,2.52
2023-04-04T05:07:04.307Z,2.68
2023-04-04T05:09:32.145Z,2.78
2023-04-04T05:11:58.371Z,2.74
2023-04-04T05:14:35.341Z,2.75
2023-04-04T05:17:02.575Z,2.77
2023-04-04T05:19:31.917Z,2.66
2023-04-04T05:21:58.974Z,2.63
2023-04-04T05:24:36.478Z,2.68
2023-04-04T05:27:03.288Z,2.74
2023-04-04T05:29:36.369Z,2.89
2023-04-04T05:32:03.493Z,2.71
2023-04-04T05:34:31.099Z,2.72
2023-04-04T05:36:57.224Z,2.60
2023-04-04T05:39:23.692Z,2.62
2023-04-04T05:41:59.097Z,2.67
2023-04-04T05:44:26.811Z,2.66
2023-04-04T05:46:53.724Z,2.88
2023-04-04T05:49:21.351Z,2.66
2023-04-04T05:51:56.042Z,2.91
2023-04-04T05:54:23.292Z,2.97
2023-04-04T05:56:50.864Z,2.89
2023-04-04T05:59:39.703Z,3.03
2023-04-04T06:02:08.957Z,2.92
2023-04-04T06:04:40.298Z,2.95
2023-04-04T06:07:08.233Z,3.15
2023-04-04T06:09:35.511Z,3.12
2023-04-04T06:12:03.941Z,3.08
2023-04-04T06:14:31.890Z,3.14
2023-04-04T06:17:00.267Z,3.17
2023-04-04T06:19:26.636Z,3.06
2023-04-04T06:21:52.917Z,3.14
2023-04-04T06:24:19.750Z,3.23
2023-04-04T06:26:50.639Z,3.32
2023-04-04T06:29:19.829Z,3.59
2023-04-04T06:31:46.136Z,3.50
2023-04-04T06:34:22.370Z,3.50
2023-04-04T06:36:53.177Z,3.29
2023-04-04T06:39:21.522Z,3.37
2023-04-04T06:41:49.682Z,3.46
2023-04-04T06:44:16.186Z,3.46
2023-04-04T06:46:42.495Z,3.61
2023-04-04T06:49:08.901Z,3.92
2023-04-04T06:51:35.872Z,4.32
2023-04-04T06:54:02.573Z,7.35
2023-04-04T06:56:29.552Z,7.92
2023-04-04T06:58:56.247Z,7.80
2023-04-04T07:01:22.624Z,7.69
2023-04-04T07:03:53.034Z,7.64
2023-04-04T07:06:22.998Z,7.18
2023-04-04T07:08:50.884Z,7.92
2023-04-04T07:11:17.409Z,7.83
2023-04-04T07:13:43.846Z,7.58
2023-04-04T07:16:11.051Z,7.59
2023-04-04T07:18:37.465Z,6.83
2023-04-04T07:21:04.047Z,6.79
2023-04-04T07:23:30.539Z,6.82
2023-04-04T07:25:56.666Z,7.00
2023-04-04T07:28:23.634Z,6.71
2023-04-04T07:30:49.798Z,7.05
2023-04-04T07:33:16.397Z,7.35
2023-04-04T07:35:42.640Z,7.20
2023-04-04T07:38:09.499Z,7.29
2023-04-04T07:40:36.011Z,7.16
2023-04-04T07:43:02.486Z,6.88
2023-04-04T07:45:28.558Z,6.40
2023-04-04T07:47:55.243Z,5.88
2023-04-04T07:50:21.803Z,5.94
2023-04-04T07:52:53.773Z,5.68
2023-04-04T07:55:19.969Z,5.26
2023-04-04T07:57:46.887Z,5.04
2023-04-04T08:00:13.778Z,4.41
2023-04-04T08:02:40.508Z,4.44
2023-04-04T08:05:07.629Z,4.53
2023-04-04T08:07:34.015Z,4.46
2023-04-04T08:10:00.668Z,4.15
2023-04-04T08:12:27.160Z,4.20
2023-04-04T08:14:53.249Z,4.48
2023-04-04T08:17:20.375Z,4.53
2023-04-04T08:19:46.512Z,4.67
2023-04-04T08:22:13.004Z,4.66
2023-04-04T08:24:39.173Z,4.58
2023-04-04T08:27:06.149Z,4.55
2023-04-04T08:29:33.534Z,4.80
2023-04-04T08:32:00.044Z,4.58
2023-04-04T08:34:26.291Z,4.93
2023-04-04T08:36:52.974Z,4.72
2023-04-04T08:39:19.039Z,4.88
2023-04-04T08:41:45.642Z,4.77
2023-04-04T08:44:17.345Z,4.89
2023-04-04T08:46:45.303Z,4.85
2023-04-04T08:49:15.626Z,4.56
2023-04-04T08:51:44.722Z,4.58
2023-04-04T08:54:12.539Z,4.84
2023-04-04T08:56:39.109Z,4.81
2023-04-04T08:59:05.494Z,5.13
2023-04-04T09:01:32.589Z,5.69
2023-04-04T09:03:59.927Z,5.92
2023-04-04T09:06:27.253Z,5.68
2023-04-04T09:08:54.136Z,5.76
2023-04-04T09:11:25.741Z,5.61
2023-04-04T09:13:54.686Z,5.43
2023-04-04T09:16:21.302Z,5.36
2023-04-04T09:18:48.153Z,5.02
2023-04-04T09:21:15.381Z,4.91
2023-04-04T09:23:43.981Z,4.79
2023-04-04T09:26:12.476Z,4.81
2023-04-04T09:28:39.174Z,4.96
2023-04-04T09:31:09.277Z,4.94
2023-04-04T09:33:38.140Z,4.97
2023-04-04T09:36:09.670Z,5.02
2023-04-04T09:38:39.705Z,5.13
2023-04-04T09:41:10.575Z,4.95
2023-04-04T09:43:41.273Z,5.13
2023-04-04T09:46:08.240Z,5.19
2023-04-04T09:48:35.993Z,5.05
2023-04-04T09:51:09.954Z,5.07
2023-04-04T09:53:39.125Z,5.37
2023-04-04T09:56:06.458Z,5.26
2023-04-04T09:58:36.510Z,5.50
2023-04-04T10:01:08.338Z,5.78
2023-04-04T10:03:37.620Z,5.74
2023-04-04T10:06:10.218Z,5.82
2023-04-04T10:08:39.690Z,5.95
2023-04-04T10:11:11.967Z,5.83
2023-04-04T10:13:40.526Z,6.07
2023-04-04T10:16:08.383Z,6.22
2023-04-04T10:18:36.164Z,6.35
2023-04-04T10:23:40.626Z,6.48
2023-04-04T10:26:09.195Z,6.47
2023-04-04T10:28:36.093Z,6.42
2023-04-04T10:31:14.339Z,6.29
2023-04-04T10:34:19.481Z,6.06
2023-04-04T10:36:50.828Z,6.17
2023-04-04T10:39:26.566Z,5.81
2023-04-04T10:41:54.588Z,5.68
2023-04-04T10:44:29.499Z,5.61
2023-04-04T10:46:59.476Z,5.85
2023-04-04T10:49:29.070Z,5.71
2023-04-04T10:51:57.431Z,5.69
2023-04-04T10:54:27.140Z,5.95
2023-04-04T10:56:59.869Z,6.14
2023-04-04T10:59:26.543Z,6.11
2023-04-04T11:01:58.058Z,6.08
2023-04-04T11:04:30.888Z,6.28
2023-04-04T11:07:07.024Z,6.44
2023-04-04T11:09:53.720Z,6.34
2023-04-04T11:12:30.710Z,6.03
2023-04-04T11:15:05.474Z,6.07
2023-04-04T11:17:58.959Z,5.76
2023-04-04T11:20:34.191Z,5.66
2023-04-04T11:23:05.693Z,5.74
2023-04-04T11:25:38.076Z,5.68
2023-04-04T11:28:28.546Z,5.64
2023-04-04T11:31:40.148Z,5.93
2023-04-04T11:34:08.461Z,6.55
2023-04-04T11:36:34.766Z,6.65
2023-04-04T11:39:24.046Z,6.87
2023-04-04T11:42:13.836Z,7.39
2023-04-04T11:44:50.563Z,7.07
2023-04-04T11:47:23.306Z,7.39
2023-04-04T11:49:52.848Z,7.10
2023-04-04T11:52:19.553Z,6.94
2023-04-04T11:54:47.309Z,6.78
2023-04-04T11:57:15.425Z,6.89
2023-04-04T11:59:44.723Z,6.72
2023-04-04T12:02:12.691Z,6.68
2023-04-04T12:04:42.656Z,6.77
2023-04-04T12:07:10.799Z,6.72
2023-04-04T12:09:38.151Z,6.94
2023-04-04T12:12:06.835Z,7.14
2023-04-04T12:14:33.509Z,7.25
2023-04-04T12:17:01.966Z,7.11
2023-04-04T12:19:29.005Z,7.45
2023-04-04T12:21:56.911Z,7.36
2023-04-04T12:24:23.731Z,7.00
2023-04-04T12:26:52.178Z,6.63
2023-04-04T12:29:22.113Z,6.99
2023-04-04T12:31:51.097Z,7.14
2023-04-04T12:34:22.031Z,7.17
2023-04-04T12:36:52.023Z,7.24
2023-04-04T12:39:21.021Z,7.49
2023-04-04T12:41:50.651Z,7.70
2023-04-04T12:44:28.768Z,7.98
2023-04-04T12:46:59.316Z,7.84
2023-04-04T12:49:45.081Z,7.99
2023-04-04T12:52:31.745Z,7.72
2023-04-04T12:55:08.404Z,7.09
2023-04-04T12:57:37.977Z,7.32
2023-04-04T13:00:07.537Z,7.05
2023-04-04T13:02:35.731Z,7.04
2023-04-04T13:05:03.446Z,6.97
2023-04-04T13:07:33.040Z,6.92
2023-04-04T13:10:04.902Z,7.14
2023-04-04T13:12:55.973Z,7.67
2023-04-04T13:15:23.169Z,7.88
2023-04-04T13:17:50.785Z,7.44
2023-04-04T13:20:18.961Z,7.33
2023-04-04T13:22:45.477Z,7.41
2023-04-04T13:25:12.044Z,7.14
2023-04-04T13:27:38.597Z,6.84
2023-04-04T13:30:07.636Z,6.69
2023-04-04T13:32:36.029Z,6.71
2023-04-04T13:35:02.932Z,6.83
2023-04-04T13:37:29.266Z,6.76
2023-04-04T13:39:56.057Z,6.95
2023-04-04T13:42:26.536Z,7.52
2023-04-04T13:44:53.312Z,7.85
2023-04-04T13:47:22.237Z,7.98
2023-04-04T13:49:49.098Z,7.82
2023-04-04T13:52:15.723Z,7.40
2023-04-04T13:54:43.333Z,7.46
2023-04-04T13:57:10.023Z,7.64
2023-04-04T13:59:36.838Z,7.98
2023-04-04T14:02:03.847Z,8.25
2023-04-04T14:04:30.674Z,8.05
2023-04-04T14:06:56.970Z,8.30
2023-04-04T14:09:23.722Z,8.48
2023-04-04T14:11:50.523Z,8.08
2023-04-04T14:14:17.564Z,8.18
2023-04-04T14:16:44.262Z,8.05
2023-04-04T14:19:11.058Z,7.83
2023-04-04T14:21:37.701Z,7.56
2023-04-04T14:24:05.289Z,7.45
2023-04-04T14:26:33.320Z,7.21
2023-04-04T14:29:01.152Z,7.37
2023-04-04T14:31:27.841Z,7.35
2023-04-04T14:33:54.698Z,7.25
2023-04-04T14:36:23.605Z,7.24
2023-04-04T14:38:50.470Z,7.29
2023-04-04T14:41:17.365Z,7.22
2023-04-04T14:43:44.344Z,7.24
2023-04-04T14:46:10.752Z,7.14
2023-04-04T14:48:38.187Z,6.89
2023-04-04T14:51:05.400Z,7.04
2023-04-04T14:53:32.126Z,7.01
2023-04-04T14:55:58.583Z,6.85
2023-04-04T14:58:25.164Z,7.10
2023-04-04T15:00:51.800Z,7.02
2023-04-04T15:03:18.290Z,7.29
2023-04-04T15:05:44.477Z,7.21
2023-04-04T15:08:10.911Z,7.18
2023-04-04T15:10:37.060Z,7.21
2023-04-04T15:13:03.610Z,7.36
2023-04-04T15:15:30.182Z,7.24
2023-04-04T15:17:56.850Z,7.18
2023-04-04T15:20:23.015Z,7.03
2023-04-04T15:22:49.526Z,7.03
2023-04-04T15:25:15.773Z,7.11
2023-04-04T15:27:42.320Z,7.10
2023-04-04T15:30:09.034Z,7.00
2023-04-04T15:32:35.605Z,7.10
2023-04-04T15:35:03.726Z,7.16
2023-04-04T15:37:30.435Z,7.03
2023-04-04T15:39:56.848Z,7.13
2023-04-04T15:42:25.191Z,7.11
2023-04-04T15:44:51.766Z,7.31
2023-04-04T15:47:18.226Z,7.28
2023-04-04T15:49:44.613Z,7.33
2023-04-04T15:52:11.587Z,7.34
2023-04-04T15:54:38.146Z,7.59
2023-04-04T15:57:04.764Z,7.64
2023-04-04T15:59:31.112Z,7.55
2023-04-04T16:01:57.987Z,7.49
2023-04-04T16:04:24.329Z,7.46
2023-04-04T16:06:50.940Z,7.28
2023-04-04T16:09:17.164Z,7.37
2023-04-04T16:11:43.673Z,7.22
2023-04-04T16:14:11.456Z,7.36
2023-04-04T16:16:39.821Z,7.22
2023-04-04T16:19:06.247Z,7.25
2023-04-04T16:21:33.223Z,7.18
2023-04-04T16:23:59.629Z,7.24
2023-04-04T16:26:26.902Z,7.13
2023-04-04T16:28:53.847Z,7.08
2023-04-04T16:31:21.113Z,7.11
2023-04-04T16:33:47.528Z,6.99
2023-04-04T16:36:14.021Z,6.93
2023-04-04T16:38:40.766Z,7.09
2023-04-04T16:41:08.037Z,6.83
2023-04-04T16:43:34.709Z,6.76
2023-04-04T16:46:01.652Z,6.68
2023-04-04T16:48:28.543Z,6.67
2023-04-04T16:50:56.148Z,6.65
2023-04-04T16:53:23.441Z,6.73
2023-04-04T16:55:50.806Z,6.65
2023-04-04T16:58:17.529Z,6.70
2023-04-04T17:00:44.718Z,6.63
2023-04-04T17:03:11.591Z,6.68
2023-04-04T17:05:38.625Z,6.72
2023-04-04T17:08:05.422Z,6.74
2023-04-04T17:10:33.710Z,6.69
2023-04-04T17:13:00.680Z,6.67
2023-04-04T17:15:28.004Z,6.69
2023-04-04T17:17:55.313Z,6.63
2023-04-04T17:20:22.183Z,6.48
2023-04-04T17:22:50.928Z,6.43
2023-04-04T17:25:17.820Z,6.44
2023-04-04T17:27:44.536Z,6.36
2023-04-04T17:30:12.734Z,6.34
2023-04-04T17:32:39.309Z,6.30
2023-04-04T17:35:07.393Z,6.32
2023-04-04T17:37:34.583Z,6.21
2023-04-04T17:40:05.044Z,6.17
2023-04-04T17:42:32.604Z,6.16
2023-04-04T17:45:00.361Z,6.13
2023-04-04T17:47:27.288Z,5.94
2023-04-04T17:49:59.148Z,5.86
2023-04-04T17:52:26.497Z,5.79
2023-04-04T17:54:54.052Z,5.82
2023-04-04T17:57:22.332Z,5.76
2023-04-04T17:59:49.822Z,5.78
2023-04-04T18:02:18.220Z,5.81
2023-04-04T18:04:48.760Z,5.76
2023-04-04T18:07:16.302Z,5.79
2023-04-04T18:09:43.656Z,5.65
2023-04-04T18:12:10.996Z,5.59
2023-04-04T18:14:37.848Z,5.52
2023-04-04T18:17:04.321Z,5.45
2023-04-04T18:19:31.243Z,5.32
2023-04-04T18:21:59.220Z,5.23
2023-04-04T18:24:29.239Z,5.32
2023-04-04T18:26:56.007Z,5.31
2023-04-04T18:29:24.212Z,5.26
2023-04-04T18:31:50.852Z,5.25
2023-04-04T18:34:17.747Z,5.30
2023-04-04T18:36:44.168Z,5.39
2023-04-04T18:39:10.887Z,5.37
2023-04-04T18:41:37.323Z,5.39
2023-04-04T18:44:04.480Z,5.41
2023-04-04T18:46:30.923Z,5.32
2023-04-04T18:48:58.127Z,5.25
2023-04-04T18:51:25.700Z,5.14
2023-04-04T18:53:52.512Z,5.09
2023-04-04T18:56:19.129Z,5.07
2023-04-04T18:58:46.113Z,5.04
2023-04-04T19:01:12.526Z,4.90
2023-04-04T19:03:42.244Z,4.88
2023-04-04T19:06:13.192Z,4.86
2023-04-04T19:08:41.827Z,4.81
2023-04-04T19:11:09.095Z,4.88
2023-04-04T19:13:36.196Z,4.81
2023-04-04T19:16:04.123Z,4.85
2023-04-04T19:18:31.591Z,4.88
2023-04-04T19:20:58.229Z,4.86
2023-04-04T19:23:27.166Z,4.91
2023-04-04T19:25:55.088Z,4.86
2023-04-04T19:28:22.107Z,4.87
2023-04-04T19:30:49.060Z,4.89
2023-04-04T19:33:20.658Z,4.92
2023-04-04T19:35:48.057Z,4.95
2023-04-04T19:38:22.100Z,4.98
2023-04-04T19:40:51.741Z,4.99
2023-04-04T19:43:20.861Z,4.92
2023-04-04T19:45:52.783Z,4.95
2023-04-04T19:48:50.556Z,4.92
2023-04-04T19:51:17.183Z,4.88
2023-04-04T19:53:46.935Z,4.90
2023-04-04T19:56:15.577Z,4.92
2023-04-04T19:58:43.316Z,4.97
2023-04-04T20:01:11.938Z,4.80
2023-04-04T20:03:40.170Z,4.76
2023-04-04T20:06:06.738Z,4.92
2023-04-04T20:08:43.640Z,4.95
2023-04-04T20:11:11.388Z,4.95
2023-04-04T20:13:39.926Z,4.97
2023-04-04T20:16:15.209Z,4.97
2023-04-04T20:18:46.417Z,5.04
2023-04-04T20:21:16.659Z,5.03
2023-04-04T20:23:52.773Z,4.96
2023-04-04T20:26:34.826Z,5.15
2023-04-04T20:29:03.924Z,5.15
2023-04-04T20:31:35.452Z,5.05
2023-04-04T20:34:05.602Z,5.01
2023-04-04T20:36:32.274Z,5.02
2023-04-04T20:38:59.862Z,4.89
2023-04-04T20:41:26.572Z,4.77
2023-04-04T20:43:58.390Z,4.98
2023-04-04T20:46:26.697Z,4.79
2023-04-04T20:48:56.056Z,4.71
2023-04-04T20:51:31.323Z,4.69
2023-04-04T20:54:02.508Z,4.54
2023-04-04T20:56:38.878Z,4.43
2023-04-04T20:59:07.028Z,4.36
2023-04-04T21:01:33.957Z,4.33
2023-04-04T21:04:01.726Z,4.21
2023-04-04T21:06:29.576Z,4.21
2023-04-04T21:08:57.036Z,4.22
2023-04-04T21:11:28.379Z,4.23
2023-04-04T21:13:56.779Z,4.13
2023-04-04T21:16:26.108Z,4.13
2023-04-04T21:18:59.077Z,4.04
2023-04-04T21:21:26.727Z,4.05
2023-04-04T21:23:53.711Z,3.99
2023-04-04T21:26:28.001Z,3.92
2023-04-04T21:28:56.674Z,3.82
2023-04-04T21:31:25.829Z,3.57
2023-04-04T21:33:58.162Z,3.62
2023-04-04T21:36:25.879Z,3.54
2023-04-04T21:38:55.409Z,3.38
2023-04-04T21:41:24.433Z,3.27
2023-04-04T21:43:55.311Z,3.15
2023-04-04T21:46:24.451Z,3.05
2023-04-04T21:48:52.168Z,2.92
2023-04-04T21:51:18.862Z,2.92
2023-04-04T21:53:46.410Z,2.79
2023-04-04T21:56:13.320Z,2.84
2023-04-04T21:58:40.885Z,2.69
2023-04-04T22:01:08.524Z,2.59
2023-04-04T22:03:37.816Z,2.60
2023-04-04T22:10:26.558Z,2.62
2023-04-04T22:17:22.148Z,2.58
2023-04-04T22:19:58.878Z,2.70
2023-04-04T22:22:29.508Z,2.53
2023-04-04T22:28:23.904Z,2.59
2023-04-04T22:30:50.360Z,2.51
2023-04-04T22:33:16.471Z,2.49
2023-04-04T22:35:45.018Z,2.54
2023-04-04T22:38:13.872Z,2.53
2023-04-04T22:40:41.272Z,2.72
2023-04-04T22:43:07.453Z,2.50
2023-04-04T22:45:33.837Z,2.41
2023-04-04T22:48:01.497Z,2.49
2023-04-04T22:50:28.057Z,2.44
2023-04-04T22:52:54.798Z,2.47
2023-04-04T22:55:24.695Z,2.62
2023-04-04T22:57:51.166Z,2.59
2023-04-04T23:00:18.126Z,2.61
2023-04-04T23:02:45.877Z,2.63
2023-04-04T23:05:15.314Z,2.65
2023-04-04T23:07:42.520Z,2.65
2023-04-04T23:10:11.015Z,2.79
2023-04-04T23:12:38.109Z,2.88
2023-04-04T23:15:06.408Z,2.99
2023-04-04T23:17:33.358Z,2.85
2023-04-04T23:20:00.690Z,2.70
2023-04-04T23:22:27.829Z,2.69
2023-04-04T23:24:54.436Z,2.73
2023-04-04T23:27:20.571Z,2.95
2023-04-04T23:29:49.824Z,2.93
2023-04-04T23:32:15.928Z,2.92
2023-04-04T23:34:42.263Z,2.98
2023-04-04T23:37:08.388Z,2.77
2023-04-04T23:39:35.028Z,2.70
2023-04-04T23:42:01.948Z,2.93
2023-04-04T23:44:28.320Z,3.00
2023-04-04T23:46:55.081Z,2.89
2023-04-04T23:49:21.807Z,2.91
2023-04-04T23:51:48.043Z,2.84
2023-04-04T23:54:15.016Z,2.58
2023-04-04T23:56:41.074Z,2.60
2023-04-04T23:59:07.604Z,2.60
